createdAt,value
2018-08-10T00:00:10.236Z,1.10
2018-08-10T00:02:38.589Z,1.10
2018-08-10T00:05:07.375Z,1.10
2018-08-10T00:07:35.572Z,1.10
2018-08-10T00:10:04.466Z,1.25
2018-08-10T00:12:32.550Z,1.10
2018-08-10T00:15:00.607Z,0.95
2018-08-10T00:17:28.629Z,0.85
2018-08-10T00:19:56.677Z,1.15
2018-08-10T00:22:24.729Z,0.80
2018-08-10T00:24:52.772Z,1.00
2018-08-10T00:27:20.816Z,0.90
2018-08-10T00:29:48.860Z,1.10
2018-08-10T00:32:16.908Z,1.27
2018-08-10T00:34:44.960Z,1.10
2018-08-10T00:37:13.001Z,1.15
2018-08-10T00:39:41.052Z,0.88
2018-08-10T00:42:09.096Z,1.10
2018-08-10T00:44:37.153Z,1.10
2018-08-10T00:47:05.216Z,1.05
2018-08-10T00:49:33.273Z,1.17
2018-08-10T00:52:01.318Z,1.00
2018-08-10T00:54:29.379Z,1.05
2018-08-10T00:56:57.404Z,1.00
2018-08-10T00:59:25.451Z,0.90
2018-08-10T01:01:53.570Z,1.35
2018-08-10T01:04:21.548Z,0.90
2018-08-10T01:06:49.596Z,1.05
2018-08-10T01:09:17.680Z,0.80
2018-08-10T01:11:45.703Z,1.02
2018-08-10T01:14:13.749Z,1.00
2018-08-10T01:16:41.788Z,1.00
2018-08-10T01:19:09.875Z,0.90
2018-08-10T01:21:37.913Z,0.90
2018-08-10T01:24:05.982Z,1.05
2018-08-10T01:26:33.996Z,0.90
2018-08-10T01:29:02.065Z,0.90
2018-08-10T01:31:30.084Z,0.98
2018-08-10T01:33:58.221Z,1.10
2018-08-10T01:36:26.256Z,1.00
2018-08-10T01:38:54.289Z,0.95
2018-08-10T01:41:22.340Z,0.88
2018-08-10T01:43:50.385Z,1.02
2018-08-10T01:46:18.436Z,0.93
2018-08-10T01:48:46.477Z,1.10
2018-08-10T01:51:14.528Z,0.90
2018-08-10T01:53:42.696Z,1.22
2018-08-10T01:56:10.741Z,1.00
2018-08-10T01:58:38.775Z,1.00
2018-08-10T02:01:06.816Z,0.90
2018-08-10T02:03:34.852Z,1.00
2018-08-10T02:06:02.906Z,1.07
2018-08-10T02:08:30.944Z,1.02
2018-08-10T02:10:59.004Z,1.30
2018-08-10T02:13:27.045Z,1.10
2018-08-10T02:15:55.088Z,1.00
2018-08-10T02:18:23.132Z,1.22
2018-08-10T02:20:51.216Z,1.20
2018-08-10T02:23:19.237Z,1.12
2018-08-10T02:25:47.387Z,1.00
2018-08-10T02:28:15.412Z,1.10
2018-08-10T02:30:43.465Z,1.10
2018-08-10T02:33:11.504Z,1.17
2018-08-10T02:35:39.550Z,1.47
2018-08-10T02:38:07.589Z,0.95
2018-08-10T02:40:35.642Z,1.45
2018-08-10T02:43:03.685Z,1.00
2018-08-10T02:48:06.148Z,1.22
2018-08-10T02:50:34.275Z,1.27
2018-08-10T02:53:02.292Z,1.10
2018-08-10T02:55:30.373Z,1.20
2018-08-10T02:57:58.413Z,1.12
2018-08-10T03:00:26.457Z,1.12
2018-08-10T03:02:54.496Z,1.20
2018-08-10T03:05:22.535Z,1.20
2018-08-10T03:07:50.577Z,1.12
2018-08-10T03:10:18.708Z,1.12
2018-08-10T03:12:46.835Z,1.25
2018-08-10T03:15:16.054Z,1.20
2018-08-10T03:18:21.924Z,1.30
2018-08-10T03:20:49.965Z,1.60
2018-08-10T03:23:18.005Z,1.30
2018-08-10T03:25:46.044Z,1.30
2018-08-10T03:28:14.096Z,1.30
2018-08-10T03:30:42.136Z,1.45
2018-08-10T03:33:10.173Z,1.50
2018-08-10T03:35:38.216Z,1.20
2018-08-10T03:38:06.244Z,1.40
2018-08-10T03:40:34.372Z,1.20
2018-08-10T03:43:02.384Z,1.40
2018-08-10T03:45:30.424Z,1.72
2018-08-10T03:47:58.464Z,1.15
2018-08-10T03:50:26.496Z,1.35
2018-08-10T03:52:54.544Z,1.50
2018-08-10T03:55:22.579Z,1.20
2018-08-10T03:57:50.625Z,1.70
2018-08-10T04:00:18.668Z,1.30
2018-08-10T04:02:46.708Z,1.20
2018-08-10T04:05:14.755Z,1.17
2018-08-10T04:07:42.951Z,1.30
2018-08-10T04:10:11.390Z,1.35
2018-08-10T04:12:39.596Z,1.55
2018-08-10T04:15:09.919Z,1.30
2018-08-10T04:17:37.980Z,1.67
2018-08-10T04:20:06.390Z,1.32
2018-08-10T04:22:34.428Z,1.40
2018-08-10T04:25:02.496Z,1.50
2018-08-10T04:27:30.556Z,1.60
2018-08-10T04:29:58.620Z,1.52
2018-08-10T04:32:26.692Z,1.30
2018-08-10T04:34:54.795Z,1.30
2018-08-10T04:37:22.881Z,1.30
2018-08-10T04:39:50.916Z,1.35
2018-08-10T04:42:18.976Z,1.70
2018-08-10T04:44:47.031Z,1.45
2018-08-10T04:47:15.104Z,1.62
2018-08-10T04:49:43.160Z,1.22
2018-08-10T04:52:11.224Z,1.30
2018-08-10T04:54:39.285Z,1.62
2018-08-10T04:57:07.458Z,1.62
2018-08-10T04:59:35.489Z,1.77
2018-08-10T05:02:03.584Z,1.52
2018-08-10T05:04:31.637Z,2.08
2018-08-10T05:06:59.695Z,1.47
2018-08-10T05:09:27.755Z,1.47
2018-08-10T05:11:55.834Z,1.50
2018-08-10T05:14:23.946Z,1.75
2018-08-10T05:16:51.987Z,1.90
2018-08-10T05:19:20.042Z,1.42
2018-08-10T05:21:48.105Z,1.55
2018-08-10T05:24:16.181Z,1.92
2018-08-10T05:26:44.244Z,1.40
2018-08-10T05:29:12.310Z,1.30
2018-08-10T05:31:40.372Z,1.80
2018-08-10T05:34:08.433Z,1.40
2018-08-10T05:36:36.509Z,1.32
2018-08-10T05:39:07.512Z,1.37
2018-08-10T05:41:35.711Z,1.60
2018-08-10T05:44:03.832Z,1.62
2018-08-10T05:46:31.828Z,1.62
2018-08-10T05:48:59.896Z,1.40
2018-08-10T05:51:27.960Z,1.35
2018-08-10T05:53:56.044Z,1.45
2018-08-10T05:56:24.099Z,1.32
2018-08-10T05:58:52.161Z,1.32
2018-08-10T06:01:20.223Z,2.12
2018-08-10T06:03:48.359Z,1.50
2018-08-10T06:06:16.348Z,1.30
2018-08-10T06:08:44.413Z,1.45
2018-08-10T06:11:12.559Z,1.45
2018-08-10T06:13:40.589Z,1.47
2018-08-10T06:16:08.673Z,1.67
2018-08-10T06:18:36.716Z,1.40
2018-08-10T06:21:04.753Z,1.50
2018-08-10T06:23:32.796Z,1.30
2018-08-10T06:26:00.831Z,1.50
2018-08-10T06:28:28.945Z,1.60
2018-08-10T06:30:57.087Z,1.37
2018-08-10T06:33:25.129Z,1.80
2018-08-10T06:35:53.163Z,1.50
2018-08-10T06:38:21.209Z,1.20
2018-08-10T06:40:49.242Z,1.37
2018-08-10T06:43:17.454Z,1.20
2018-08-10T06:45:45.554Z,1.60
2018-08-10T06:48:13.744Z,1.20
2018-08-10T06:50:41.785Z,1.00
2018-08-10T06:53:09.879Z,1.12
2018-08-10T06:55:37.963Z,1.52
2018-08-10T06:58:06.063Z,1.20
2018-08-10T07:00:34.089Z,1.25
2018-08-10T07:03:02.113Z,1.30
2018-08-10T07:05:30.156Z,1.12
2018-08-10T07:07:58.208Z,1.22
2018-08-10T07:10:26.589Z,1.25
2018-08-10T07:13:01.141Z,1.30
2018-08-10T07:15:29.150Z,1.45
2018-08-10T07:17:57.201Z,1.30
2018-08-10T07:20:25.236Z,2.35
2018-08-10T07:22:53.288Z,1.30
2018-08-10T07:25:21.327Z,1.37
2018-08-10T07:27:49.390Z,1.50
2018-08-10T07:30:17.436Z,1.67
2018-08-10T07:32:45.515Z,1.20
2018-08-10T07:35:13.585Z,1.30
2018-08-10T07:37:42.128Z,1.30
2018-08-10T07:40:10.168Z,1.22
2018-08-10T07:42:38.229Z,1.10
2018-08-10T07:45:06.283Z,1.55
2018-08-10T07:47:34.332Z,1.57
2018-08-10T07:50:02.387Z,1.60
2018-08-10T07:52:30.436Z,1.65
2018-08-10T07:54:58.485Z,1.15
2018-08-10T07:57:26.654Z,1.40
2018-08-10T08:00:01.644Z,1.37
2018-08-10T08:02:29.692Z,1.20
2018-08-10T08:04:57.757Z,1.40
2018-08-10T08:07:25.801Z,1.22
2018-08-10T08:09:53.878Z,1.67
2018-08-10T08:12:21.948Z,1.30
2018-08-10T08:14:50.107Z,1.30
2018-08-10T08:17:18.168Z,1.40
2018-08-10T08:19:46.431Z,1.30
2018-08-10T08:22:18.776Z,1.52
2018-08-10T08:24:46.852Z,1.30
2018-08-10T08:27:16.219Z,1.80
2018-08-10T08:29:44.220Z,1.42
2018-08-10T08:32:12.648Z,1.70
2018-08-10T08:34:41.081Z,1.60
2018-08-10T08:37:09.537Z,1.35
2018-08-10T08:40:50.412Z,1.37
2018-08-10T08:43:30.669Z,1.87
2018-08-10T08:46:00.537Z,2.10
2018-08-10T08:48:29.644Z,1.92
2018-08-10T08:50:59.148Z,1.90
2018-08-10T08:53:27.196Z,1.85
2018-08-10T08:56:00.540Z,1.60
2018-08-10T08:58:29.157Z,1.67
2018-08-10T09:00:57.215Z,1.55
2018-08-10T09:03:37.000Z,1.60
2018-08-10T09:06:05.870Z,1.77
2018-08-10T09:08:33.940Z,1.92
2018-08-10T09:11:03.488Z,1.47
2018-08-10T09:14:44.712Z,1.25
2018-08-10T09:17:13.015Z,1.52
2018-08-10T09:19:41.804Z,1.50
2018-08-10T09:22:10.189Z,1.70
2018-08-10T09:24:38.389Z,1.90
2018-08-10T09:27:06.453Z,1.60
2018-08-10T09:29:34.959Z,1.77
2018-08-10T09:32:03.245Z,1.45
2018-08-10T09:34:31.363Z,2.30
2018-08-10T09:36:59.921Z,1.75
2018-08-10T09:39:28.716Z,1.80
2018-08-10T09:41:57.041Z,1.40
2018-08-10T09:44:25.101Z,1.42
2018-08-10T09:46:53.204Z,1.72
2018-08-10T09:49:21.256Z,1.45
2018-08-10T09:51:49.385Z,1.80
2018-08-10T09:54:17.415Z,1.50
2018-08-10T09:56:45.465Z,1.72
2018-08-10T09:59:13.508Z,1.35
2018-08-10T10:01:47.113Z,1.57
2018-08-10T10:04:15.724Z,1.60
2018-08-10T10:06:43.835Z,1.50
2018-08-10T10:09:12.204Z,1.65
2018-08-10T10:11:40.253Z,1.65
2018-08-10T10:14:08.971Z,1.75
2018-08-10T10:16:37.226Z,1.45
2018-08-10T10:19:05.425Z,1.35
2018-08-10T10:21:33.469Z,1.50
2018-08-10T10:24:01.615Z,1.82
2018-08-10T10:26:29.698Z,1.57
2018-08-10T10:28:57.901Z,1.65
2018-08-10T10:31:25.941Z,1.90
2018-08-10T10:33:53.994Z,1.67
2018-08-10T10:36:22.039Z,1.80
2018-08-10T10:38:50.123Z,1.90
2018-08-10T10:41:18.172Z,1.65
2018-08-10T10:43:46.204Z,2.10
2018-08-10T10:46:14.248Z,1.85
2018-08-10T10:48:42.289Z,1.80
2018-08-10T10:51:10.447Z,1.57
2018-08-10T10:53:38.461Z,1.75
2018-08-10T10:56:06.613Z,1.57
2018-08-10T10:58:34.698Z,1.37
2018-08-10T11:01:02.730Z,1.70
2018-08-10T11:03:30.777Z,1.57
2018-08-10T11:05:58.824Z,1.70
2018-08-10T11:08:26.877Z,1.45
2018-08-10T11:10:55.021Z,1.98
2018-08-10T11:13:23.105Z,1.50
2018-08-10T11:15:51.168Z,2.17
2018-08-10T11:18:19.377Z,1.60
2018-08-10T11:20:47.401Z,1.50
2018-08-10T11:23:15.556Z,1.70
2018-08-10T11:25:43.726Z,1.85
2018-08-10T11:28:11.629Z,2.00
2018-08-10T11:30:39.672Z,2.27
2018-08-10T11:33:07.707Z,2.20
2018-08-10T11:35:35.777Z,1.85
2018-08-10T11:38:03.846Z,1.80
2018-08-10T11:40:31.978Z,1.67
2018-08-10T11:43:00.022Z,1.90
2018-08-10T11:45:28.261Z,1.85
2018-08-10T11:47:56.313Z,1.67
2018-08-10T11:50:24.382Z,1.50
2018-08-10T11:52:52.421Z,1.65
2018-08-10T11:55:20.536Z,2.30
2018-08-10T11:57:48.580Z,1.70
2018-08-10T12:00:16.715Z,1.55
2018-08-10T12:02:44.728Z,1.67
2018-08-10T12:05:13.520Z,1.87
2018-08-10T12:07:41.584Z,1.70
2018-08-10T12:10:09.696Z,1.85
2018-08-10T12:12:37.887Z,1.85
2018-08-10T12:15:07.948Z,1.90
2018-08-10T12:17:36.276Z,1.90
2018-08-10T12:20:04.668Z,1.60
2018-08-10T12:22:32.708Z,1.82
2018-08-10T12:25:00.765Z,1.98
2018-08-10T12:27:28.823Z,1.47
2018-08-10T12:29:56.905Z,2.08
2018-08-10T12:32:24.991Z,1.52
2018-08-10T12:34:53.076Z,1.90
2018-08-10T12:37:21.123Z,1.70
2018-08-10T12:39:49.251Z,1.85
2018-08-10T12:42:17.284Z,1.65
2018-08-10T12:44:45.347Z,1.87
2018-08-10T12:47:13.400Z,1.60
2018-08-10T12:49:41.481Z,1.70
2018-08-10T12:52:09.516Z,1.50
2018-08-10T12:54:37.654Z,1.40
2018-08-10T12:57:05.761Z,1.32
2018-08-10T12:59:33.748Z,1.30
2018-08-10T13:02:01.811Z,1.37
2018-08-10T13:04:29.871Z,1.40
2018-08-10T13:06:57.933Z,1.62
2018-08-10T13:09:25.998Z,1.40
2018-08-10T13:11:54.067Z,1.10
2018-08-10T13:14:22.116Z,1.30
2018-08-10T13:16:50.176Z,1.30
2018-08-10T13:19:18.256Z,1.15
2018-08-10T13:21:46.333Z,1.60
2018-08-10T13:24:14.405Z,1.40
2018-08-10T13:26:42.525Z,1.50
2018-08-10T13:29:10.633Z,1.50
2018-08-10T13:31:38.718Z,1.35
2018-08-10T13:34:06.748Z,1.27
2018-08-10T13:36:34.897Z,1.72
2018-08-10T13:39:02.996Z,2.67
2018-08-10T13:41:31.158Z,1.12
2018-08-10T13:43:59.192Z,1.50
2018-08-10T13:46:27.328Z,1.32
2018-08-10T13:48:55.376Z,1.15
2018-08-10T13:51:23.447Z,1.25
2018-08-10T13:53:51.512Z,1.50
2018-08-10T13:56:19.596Z,1.20
2018-08-10T13:58:47.868Z,1.50
2018-08-10T14:01:15.808Z,1.45
2018-08-10T14:03:43.896Z,1.45
2018-08-10T14:06:12.073Z,1.30
2018-08-10T14:08:40.144Z,1.30
2018-08-10T14:11:08.279Z,1.40
2018-08-10T14:13:36.362Z,1.00
2018-08-10T14:16:04.424Z,1.00
2018-08-10T14:18:32.744Z,1.30
2018-08-10T14:21:00.879Z,1.10
2018-08-10T14:23:28.924Z,1.22
2018-08-10T14:25:57.094Z,1.15
2018-08-10T14:28:25.179Z,1.60
2018-08-10T14:30:53.366Z,1.40
2018-08-10T14:33:21.453Z,1.10
2018-08-10T14:35:49.448Z,1.30
2018-08-10T14:38:17.488Z,1.30
2018-08-10T14:40:45.536Z,1.00
2018-08-10T14:45:48.224Z,1.10
2018-08-10T14:48:16.309Z,1.40
2018-08-10T14:50:44.354Z,1.00
2018-08-10T14:53:12.397Z,1.30
2018-08-10T14:55:40.457Z,1.10
2018-08-10T14:58:08.524Z,1.40
2018-08-10T15:00:36.580Z,1.00
2018-08-10T15:03:04.922Z,1.10
2018-08-10T15:05:32.936Z,1.35
2018-08-10T15:08:01.027Z,1.20
2018-08-10T15:10:29.093Z,1.35
2018-08-10T15:12:57.336Z,1.10
2018-08-10T15:15:25.226Z,1.10
2018-08-10T15:17:53.296Z,1.25
2018-08-10T15:20:21.619Z,1.10
2018-08-10T15:22:49.703Z,1.37
2018-08-10T15:25:17.893Z,1.32
2018-08-10T15:27:45.967Z,1.20
2018-08-10T15:30:16.124Z,1.30
2018-08-10T15:32:44.232Z,1.30
2018-08-10T15:35:13.715Z,1.30
2018-08-10T15:37:41.828Z,1.20
2018-08-10T15:40:12.071Z,1.50
2018-08-10T15:42:40.149Z,1.27
2018-08-10T15:45:10.159Z,1.10
2018-08-10T15:47:38.219Z,1.25
2018-08-10T15:50:07.145Z,1.20
2018-08-10T15:52:35.317Z,1.10
2018-08-10T15:55:03.412Z,1.02
2018-08-10T15:57:31.589Z,1.20
2018-08-10T15:59:59.641Z,1.20
2018-08-10T16:02:27.884Z,1.42
2018-08-10T16:04:55.959Z,1.10
2018-08-10T16:07:24.016Z,1.30
2018-08-10T16:09:52.081Z,1.35
2018-08-10T16:12:20.177Z,1.35
2018-08-10T16:14:48.309Z,1.10
2018-08-10T16:17:16.377Z,1.10
2018-08-10T16:19:44.880Z,1.35
2018-08-10T16:22:12.944Z,1.42
2018-08-10T16:24:41.020Z,1.20
2018-08-10T16:27:09.448Z,1.65
2018-08-10T16:29:37.516Z,1.27
2018-08-10T16:32:05.588Z,1.30
2018-08-10T16:34:33.648Z,1.17
2018-08-10T16:37:01.761Z,1.10
2018-08-10T16:39:29.825Z,1.50
2018-08-10T16:41:57.933Z,1.32
2018-08-10T16:44:32.893Z,1.27
2018-08-10T16:47:00.981Z,1.02
2018-08-10T16:49:29.053Z,1.22
2018-08-10T16:51:57.481Z,1.20
2018-08-10T16:54:25.540Z,1.10
2018-08-10T16:56:53.612Z,1.20
2018-08-10T16:59:21.680Z,1.20
2018-08-10T17:01:49.782Z,1.10
2018-08-10T17:04:17.867Z,1.30
2018-08-10T17:06:45.920Z,1.42
2018-08-10T17:09:14.057Z,1.40
2018-08-10T17:11:42.144Z,1.35
2018-08-10T17:14:10.250Z,1.30
2018-08-10T17:16:38.395Z,1.40
2018-08-10T17:19:06.532Z,1.20
2018-08-10T17:21:34.584Z,1.10
2018-08-10T17:24:02.650Z,1.20
2018-08-10T17:26:30.773Z,1.72
2018-08-10T17:28:58.764Z,1.80
2018-08-10T17:31:26.901Z,1.20
2018-08-10T17:33:54.945Z,1.47
2018-08-10T17:36:23.122Z,1.30
2018-08-10T17:38:51.191Z,1.70
2018-08-10T17:41:19.270Z,2.67
2018-08-10T17:43:47.434Z,1.50
2018-08-10T17:46:15.560Z,1.45
2018-08-10T17:48:43.620Z,1.35
2018-08-10T17:51:11.673Z,1.45
2018-08-10T17:53:39.753Z,1.42
2018-08-10T17:56:07.853Z,1.20
2018-08-10T17:58:36.052Z,1.10
2018-08-10T18:01:04.101Z,1.20
2018-08-10T18:03:32.212Z,1.30
2018-08-10T18:06:00.292Z,1.30
2018-08-10T18:08:28.483Z,1.50
2018-08-10T18:10:56.512Z,1.17
2018-08-10T18:13:24.621Z,1.90
2018-08-10T18:15:52.671Z,3.12
2018-08-10T18:18:20.724Z,1.50
2018-08-10T18:20:48.769Z,1.37
2018-08-10T18:23:16.887Z,2.85
2018-08-10T18:25:45.075Z,1.67
2018-08-10T18:28:13.096Z,1.60
2018-08-10T18:30:41.448Z,2.00
2018-08-10T18:33:09.480Z,2.50
2018-08-10T18:35:37.619Z,2.17
2018-08-10T18:38:05.844Z,1.82
2018-08-10T18:40:33.895Z,1.60
2018-08-10T18:43:01.973Z,2.05
2018-08-10T18:45:30.009Z,2.17
2018-08-10T18:47:58.044Z,1.82
2018-08-10T18:50:26.231Z,1.82
2018-08-10T18:52:54.219Z,3.30
2018-08-10T18:55:23.238Z,2.72
2018-08-10T18:57:51.828Z,1.22
2018-08-10T19:00:22.028Z,1.70
2018-08-10T19:02:50.160Z,1.80
2018-08-10T19:05:18.648Z,1.82
2018-08-10T19:07:47.441Z,1.80
2018-08-10T19:10:18.596Z,1.52
2018-08-10T19:12:46.645Z,1.62
2018-08-10T19:15:14.736Z,1.70
2018-08-10T19:17:42.881Z,1.80
2018-08-10T19:20:11.692Z,2.05
2018-08-10T19:22:39.737Z,1.90
2018-08-10T19:25:09.531Z,2.90
2018-08-10T19:27:37.553Z,3.17
2018-08-10T19:30:08.305Z,1.60
2018-08-10T19:32:36.470Z,3.50
2018-08-10T19:35:05.245Z,2.50
2018-08-10T19:37:33.355Z,3.10
2018-08-10T19:40:01.543Z,3.10
2018-08-10T19:42:29.559Z,2.95
2018-08-10T19:44:57.712Z,3.02
2018-08-10T19:47:25.753Z,3.30
2018-08-10T19:49:53.882Z,2.50
2018-08-10T19:52:21.967Z,2.17
2018-08-10T19:54:49.992Z,1.50
2018-08-10T19:57:18.140Z,1.60
2018-08-10T19:59:46.236Z,1.52
2018-08-10T20:02:14.416Z,2.00
2018-08-10T20:04:42.495Z,2.22
2018-08-10T20:07:10.579Z,2.08
2018-08-10T20:09:38.651Z,1.98
2018-08-10T20:12:06.764Z,2.25
2018-08-10T20:14:34.825Z,2.37
2018-08-10T20:17:02.918Z,2.25
2018-08-10T20:19:31.000Z,1.75
2018-08-10T20:21:59.034Z,1.70
2018-08-10T20:24:27.128Z,1.70
2018-08-10T20:26:55.193Z,1.70
2018-08-10T20:29:23.272Z,1.70
2018-08-10T20:31:51.426Z,1.55
2018-08-10T20:34:19.519Z,2.00
2018-08-10T20:36:47.596Z,1.60
2018-08-10T20:39:15.721Z,1.70
2018-08-10T20:41:43.776Z,2.02
2018-08-10T20:44:11.889Z,1.75
2018-08-10T20:46:40.510Z,1.60
2018-08-10T20:49:08.635Z,1.50
2018-08-10T20:51:36.727Z,1.80
2018-08-10T20:54:04.906Z,2.05
2018-08-10T20:56:32.993Z,1.65
2018-08-10T20:59:01.037Z,1.50
2018-08-10T21:01:29.159Z,1.75
2018-08-10T21:03:57.259Z,2.02
2018-08-10T21:06:25.300Z,1.70
2018-08-10T21:08:53.413Z,1.77
2018-08-10T21:11:21.501Z,1.80
2018-08-10T21:13:49.564Z,2.20
2018-08-10T21:16:17.670Z,1.87
2018-08-10T21:18:45.713Z,2.10
2018-08-10T21:21:13.785Z,1.80
2018-08-10T21:23:42.088Z,2.00
2018-08-10T21:26:10.148Z,1.75
2018-08-10T21:28:38.236Z,1.87
2018-08-10T21:31:06.392Z,1.57
2018-08-10T21:33:34.570Z,1.65
2018-08-10T21:36:02.624Z,1.90
2018-08-10T21:38:30.683Z,1.82
2018-08-10T21:40:58.747Z,2.15
2018-08-10T21:43:26.899Z,1.80
2018-08-10T21:45:54.936Z,1.92
2018-08-10T21:48:23.049Z,1.65
2018-08-10T21:50:51.056Z,1.55
2018-08-10T21:53:19.110Z,1.57
2018-08-10T21:55:47.172Z,1.65
2018-08-10T21:58:15.258Z,2.05
2018-08-10T22:00:50.550Z,1.87
2018-08-10T22:03:19.259Z,2.12
2018-08-10T22:05:47.775Z,1.80
2018-08-10T22:08:16.165Z,1.90
2018-08-10T22:10:44.211Z,1.82
2018-08-10T22:13:17.818Z,1.70
2018-08-10T22:15:51.312Z,1.77
2018-08-10T22:18:24.727Z,1.50
2018-08-10T22:20:53.089Z,1.70
2018-08-10T22:23:21.133Z,2.05
2018-08-10T22:25:49.272Z,1.60
2018-08-10T22:28:17.312Z,2.05
2018-08-10T22:30:45.507Z,2.40
2018-08-10T22:33:13.527Z,1.67
2018-08-10T22:35:42.101Z,1.75
2018-08-10T22:38:10.384Z,1.47
2018-08-10T22:40:38.565Z,2.02
2018-08-10T22:43:06.772Z,1.62
2018-08-10T22:45:34.820Z,1.72
2018-08-10T22:48:02.880Z,1.60
2018-08-10T22:50:31.046Z,1.70
2018-08-10T22:52:59.073Z,1.50
2018-08-10T22:55:27.117Z,2.02
2018-08-10T22:57:55.155Z,1.85
2018-08-10T23:00:23.192Z,1.70
2018-08-10T23:02:51.237Z,1.77
2018-08-10T23:05:19.280Z,1.70
2018-08-10T23:07:47.360Z,1.52
2018-08-10T23:10:15.891Z,2.20
2018-08-10T23:12:44.504Z,2.08
2018-08-10T23:15:12.670Z,1.57
2018-08-10T23:17:41.283Z,1.95
2018-08-10T23:20:11.509Z,1.65
2018-08-10T23:22:39.599Z,1.77
2018-08-10T23:25:09.728Z,1.80
2018-08-10T23:27:37.792Z,1.70
2018-08-10T23:30:08.197Z,1.60
2018-08-10T23:32:36.264Z,2.05
2018-08-10T23:35:04.654Z,1.67
2018-08-10T23:37:32.751Z,1.80
2018-08-10T23:40:00.805Z,1.80
2018-08-10T23:42:28.873Z,1.52
2018-08-10T23:44:57.067Z,1.65
2018-08-10T23:47:25.148Z,1.52
2018-08-10T23:49:53.331Z,1.70
2018-08-10T23:52:21.382Z,1.45
2018-08-10T23:54:49.450Z,1.75
2018-08-10T23:57:17.586Z,1.50
2018-08-10T23:59:45.672Z,1.87
